createdAt,value
2023-05-16T00:03:26.689Z,12.10
2023-05-16T00:05:58.394Z,11.50
2023-05-16T00:08:28.854Z,10.60
2023-05-16T00:10:58.901Z,10.40
2023-05-16T00:13:31.111Z,11.00
2023-05-16T00:16:02.987Z,10.10
2023-05-16T00:18:32.905Z,10.50
2023-05-16T00:21:02.933Z,11.30
2023-05-16T00:23:33.821Z,11.10
2023-05-16T00:26:04.584Z,10.40
2023-05-16T00:28:34.246Z,11.00
2023-05-16T00:31:06.838Z,13.60
2023-05-16T00:33:36.904Z,12.90
2023-05-16T00:36:07.132Z,11.70
2023-05-16T00:38:37.860Z,11.40
2023-05-16T00:41:11.146Z,13.10
2023-05-16T00:43:41.075Z,12.80
2023-05-16T00:46:11.193Z,13.80
2023-05-16T00:48:42.595Z,13.00
2023-05-16T00:51:14.901Z,15.10
2023-05-16T00:53:45.133Z,12.80
2023-05-16T00:56:21.809Z,11.70
2023-05-16T00:58:52.236Z,15.70
2023-05-16T01:01:25.407Z,14.40
2023-05-16T01:03:58.882Z,10.90
2023-05-16T01:06:34.670Z,10.50
2023-05-16T01:09:08.760Z,10.80
2023-05-16T01:11:59.692Z,11.10
2023-05-16T01:15:11.279Z,11.10
2023-05-16T01:18:14.846Z,9.70
2023-05-16T01:20:57.051Z,10.20
2023-05-16T01:23:53.947Z,11.40
2023-05-16T01:26:28.569Z,10.80
2023-05-16T01:29:01.586Z,11.60
2023-05-16T01:31:34.373Z,11.80
2023-05-16T01:34:04.210Z,11.30
2023-05-16T01:36:44.662Z,12.50
2023-05-16T01:39:29.334Z,11.80
2023-05-16T01:42:09.324Z,11.80
2023-05-16T01:44:59.641Z,11.80
2023-05-16T01:47:33.453Z,13.10
2023-05-16T01:50:18.167Z,11.50
2023-05-16T01:52:57.385Z,14.80
2023-05-16T01:55:43.770Z,13.10
2023-05-16T01:58:15.640Z,12.90
2023-05-16T02:03:16.619Z,12.10
2023-05-16T02:05:48.903Z,12.30
2023-05-16T02:08:18.866Z,11.80
2023-05-16T02:10:49.487Z,15.00
2023-05-16T02:13:19.617Z,11.80
2023-05-16T02:15:49.621Z,10.80
2023-05-16T02:18:19.802Z,12.10
2023-05-16T02:20:52.709Z,11.70
2023-05-16T02:23:25.107Z,11.70
2023-05-16T02:25:56.397Z,11.30
2023-05-16T02:28:26.291Z,11.60
2023-05-16T02:31:00.928Z,12.10
2023-05-16T02:33:30.893Z,13.00
2023-05-16T02:36:04.613Z,12.30
2023-05-16T02:38:34.688Z,12.60
2023-05-16T02:41:05.235Z,14.30
2023-05-16T02:43:35.368Z,14.10
2023-05-16T02:46:09.915Z,14.50
2023-05-16T02:48:39.387Z,12.40
2023-05-16T02:51:08.817Z,18.30
2023-05-16T02:53:38.524Z,13.80
2023-05-16T02:56:09.240Z,13.60
2023-05-16T03:01:11.354Z,12.60
2023-05-16T03:03:43.901Z,13.80
2023-05-16T03:06:14.049Z,13.00
2023-05-16T03:08:44.378Z,13.50
2023-05-16T03:11:15.705Z,13.40
2023-05-16T03:13:46.699Z,15.10
2023-05-16T03:16:17.461Z,12.90
2023-05-16T03:18:49.439Z,13.90
2023-05-16T03:21:19.447Z,16.20
2023-05-16T03:23:50.078Z,13.10
2023-05-16T03:26:22.777Z,33.10
2023-05-16T03:28:54.682Z,14.30
2023-05-16T03:31:28.783Z,17.10
2023-05-16T03:34:02.253Z,17.90
2023-05-16T03:36:34.658Z,12.80
2023-05-16T03:39:05.032Z,11.80
2023-05-16T03:41:36.669Z,12.10
2023-05-16T03:44:09.064Z,11.90
2023-05-16T03:46:39.128Z,11.60
2023-05-16T03:49:09.372Z,12.30
2023-05-16T03:51:39.774Z,12.40
2023-05-16T03:54:09.986Z,10.80
2023-05-16T03:56:39.496Z,12.20
2023-05-16T03:59:09.509Z,11.40
2023-05-16T04:01:45.019Z,13.10
2023-05-16T04:04:19.480Z,13.60
2023-05-16T04:07:16.280Z,11.80
2023-05-16T04:09:45.059Z,12.50
2023-05-16T04:12:15.564Z,12.50
2023-05-16T04:14:53.594Z,13.10
2023-05-16T04:17:23.703Z,11.10
2023-05-16T04:19:56.748Z,12.40
2023-05-16T04:22:30.077Z,12.90
2023-05-16T04:25:03.351Z,11.00
2023-05-16T04:27:32.843Z,10.60
2023-05-16T04:30:08.011Z,13.00
2023-05-16T04:32:37.970Z,9.60
2023-05-16T04:35:16.860Z,9.40
2023-05-16T04:37:54.195Z,8.90
2023-05-16T04:40:25.728Z,10.50
2023-05-16T04:42:55.539Z,8.80
2023-05-16T04:45:25.349Z,8.30
2023-05-16T04:47:56.095Z,8.10
2023-05-16T04:50:26.084Z,9.20
2023-05-16T04:52:56.710Z,8.40
2023-05-16T04:55:40.987Z,8.60
2023-05-16T04:58:24.741Z,12.30
2023-05-16T05:01:03.466Z,7.80
2023-05-16T05:03:38.182Z,9.90
2023-05-16T05:06:08.423Z,7.70
2023-05-16T05:08:38.154Z,10.50
2023-05-16T05:11:07.740Z,7.90
2023-05-16T05:13:39.032Z,9.40
2023-05-16T05:16:13.360Z,7.90
2023-05-16T05:18:49.766Z,9.00
2023-05-16T05:21:28.665Z,9.50
2023-05-16T05:24:05.207Z,11.00
2023-05-16T05:26:37.682Z,7.20
2023-05-16T05:29:10.676Z,7.60
2023-05-16T05:32:02.663Z,9.00
2023-05-16T05:34:40.483Z,8.90
2023-05-16T05:37:30.891Z,9.40
2023-05-16T05:40:34.445Z,11.40
2023-05-16T05:43:10.411Z,7.00
2023-05-16T05:45:48.707Z,7.00
2023-05-16T05:48:18.759Z,7.80
2023-05-16T05:50:48.886Z,8.60
2023-05-16T05:53:50.363Z,8.60
2023-05-16T05:56:29.375Z,8.40
2023-05-16T05:59:10.653Z,7.60
2023-05-16T06:01:42.751Z,7.70
2023-05-16T06:04:25.132Z,9.20
2023-05-16T06:07:13.591Z,8.20
2023-05-16T06:10:07.484Z,8.30
2023-05-16T06:13:01.470Z,8.10
2023-05-16T06:15:50.679Z,7.30
2023-05-16T06:18:38.592Z,7.50
2023-05-16T06:21:20.108Z,8.70
2023-05-16T06:24:21.283Z,9.20
2023-05-16T06:27:19.551Z,6.10
2023-05-16T06:30:07.257Z,7.30
2023-05-16T06:32:43.451Z,6.50
2023-05-16T06:35:18.523Z,16.50
2023-05-16T06:37:49.283Z,9.30
2023-05-16T06:40:22.398Z,8.10
2023-05-16T06:43:04.192Z,6.40
2023-05-16T06:45:37.238Z,5.00
2023-05-16T06:48:11.963Z,10.20
2023-05-16T06:50:45.156Z,7.30
2023-05-16T06:53:24.913Z,8.90
2023-05-16T06:55:59.458Z,7.70
2023-05-16T06:58:31.462Z,6.60
2023-05-16T07:01:03.601Z,6.60
2023-05-16T07:03:42.710Z,7.00
2023-05-16T07:06:16.362Z,5.90
2023-05-16T07:08:48.803Z,5.00
2023-05-16T07:11:29.536Z,7.20
2023-05-16T07:14:02.761Z,5.20
2023-05-16T07:16:44.726Z,8.10
2023-05-16T07:19:24.025Z,9.20
2023-05-16T07:22:00.104Z,7.40
2023-05-16T07:24:40.068Z,8.80
2023-05-16T07:27:12.416Z,4.70
2023-05-16T07:29:46.055Z,12.70
2023-05-16T07:32:17.168Z,4.80
2023-05-16T07:34:51.366Z,6.50
2023-05-16T07:37:31.346Z,6.50
2023-05-16T07:40:18.908Z,7.50
2023-05-16T07:42:55.777Z,6.20
2023-05-16T07:45:44.622Z,10.80
2023-05-16T07:49:04.573Z,4.90
2023-05-16T07:51:29.177Z,4.30
2023-05-16T07:54:05.732Z,6.80
2023-05-16T07:56:45.429Z,4.80
2023-05-16T07:59:26.832Z,5.30
2023-05-16T08:02:34.521Z,6.60
2023-05-16T08:05:18.051Z,7.40
2023-05-16T08:08:16.491Z,4.00
2023-05-16T08:11:08.365Z,4.60
2023-05-16T08:13:53.154Z,4.50
2023-05-16T08:16:49.545Z,5.80
2023-05-16T08:19:30.227Z,3.90
2023-05-16T08:22:40.402Z,10.00
2023-05-16T08:25:46.178Z,5.10
2023-05-16T08:28:36.703Z,6.30
2023-05-16T08:32:01.226Z,7.10
2023-05-16T08:36:35.601Z,3.80
2023-05-16T08:40:07.551Z,4.70
2023-05-16T08:43:37.369Z,4.40
2023-05-16T08:46:32.408Z,8.50
2023-05-16T09:15:54.861Z,5.40
2023-05-16T09:19:05.298Z,5.20
2023-05-16T09:22:18.869Z,3.30
2023-05-16T09:25:32.029Z,4.00
2023-05-16T09:28:29.561Z,5.30
2023-05-16T09:31:31.210Z,6.10
2023-05-16T09:34:13.869Z,3.40
2023-05-16T09:36:44.191Z,4.60
2023-05-16T09:39:17.533Z,7.90
2023-05-16T09:41:52.942Z,7.00
2023-05-16T09:44:23.065Z,10.20
2023-05-16T09:47:07.544Z,6.10
2023-05-16T09:49:48.531Z,6.00
2023-05-16T09:52:26.379Z,4.50
2023-05-16T09:55:16.331Z,3.30
2023-05-16T09:58:11.295Z,7.30
2023-05-16T10:01:02.903Z,3.80
2023-05-16T10:03:38.562Z,11.50
2023-05-16T10:06:18.722Z,7.30
2023-05-16T10:08:54.234Z,6.70
2023-05-16T10:11:24.900Z,7.90
2023-05-16T10:14:01.274Z,7.20
2023-05-16T10:16:36.037Z,3.20
2023-05-16T10:19:11.623Z,7.90
2023-05-16T10:21:55.595Z,6.20
2023-05-16T10:25:09.767Z,4.70
2023-05-16T10:27:55.461Z,4.00
2023-05-16T10:30:37.884Z,3.30
2023-05-16T10:33:20.940Z,3.00
2023-05-16T10:35:55.767Z,8.90
2023-05-16T10:38:29.577Z,3.90
2023-05-16T10:41:07.401Z,5.80
2023-05-16T10:43:41.445Z,3.80
2023-05-16T10:46:15.191Z,3.60
2023-05-16T10:48:50.032Z,4.70
2023-05-16T10:51:37.033Z,5.30
2023-05-16T10:55:04.405Z,4.80
2023-05-16T10:57:54.025Z,9.50
2023-05-16T11:00:24.266Z,7.20
2023-05-16T11:03:26.721Z,4.80
2023-05-16T11:06:23.603Z,24.70
2023-05-16T11:09:29.082Z,5.30
2023-05-16T11:12:05.733Z,6.10
2023-05-16T11:14:48.025Z,5.90
2023-05-16T11:17:39.976Z,10.80
2023-05-16T11:20:34.692Z,8.50
2023-05-16T11:23:26.982Z,3.20
2023-05-16T11:26:11.195Z,3.80
2023-05-16T11:28:49.522Z,5.50
2023-05-16T11:31:58.675Z,3.30
2023-05-16T11:34:45.814Z,4.50
2023-05-16T11:38:01.279Z,3.20
2023-05-16T11:40:46.366Z,4.20
2023-05-16T11:43:33.876Z,3.80
2023-05-16T11:46:17.794Z,3.60
2023-05-16T11:48:57.593Z,7.00
2023-05-16T11:51:35.675Z,8.50
2023-05-16T11:54:10.035Z,15.70
2023-05-16T11:56:43.126Z,3.50
2023-05-16T11:59:23.641Z,6.20
2023-05-16T12:02:06.402Z,4.60
2023-05-16T12:04:48.193Z,4.70
2023-05-16T12:07:23.548Z,8.00
2023-05-16T12:10:08.994Z,3.50
2023-05-16T12:12:59.184Z,3.10
2023-05-16T12:15:42.104Z,3.90
2023-05-16T12:18:43.363Z,3.40
2023-05-16T12:21:24.803Z,3.80
2023-05-16T12:24:18.461Z,3.10
2023-05-16T12:27:12.550Z,7.40
2023-05-16T12:29:51.453Z,5.20
2023-05-16T12:36:00.169Z,6.40
2023-05-16T12:39:00.194Z,5.20
2023-05-16T12:42:41.478Z,3.60
2023-05-16T12:45:35.533Z,3.60
2023-05-16T12:48:15.254Z,6.50
2023-05-16T12:50:51.584Z,3.80
2023-05-16T12:56:54.546Z,5.40
2023-05-16T12:59:34.889Z,3.60
2023-05-16T13:02:17.890Z,3.90
2023-05-16T13:05:06.223Z,3.80
2023-05-16T13:07:42.280Z,3.40
2023-05-16T13:10:22.360Z,7.80
2023-05-16T13:13:01.184Z,3.50
2023-05-16T13:15:59.316Z,4.00
2023-05-16T13:19:36.563Z,8.30
2023-05-16T13:22:20.700Z,8.90
2023-05-16T13:25:15.613Z,9.30
2023-05-16T13:28:12.232Z,6.60
2023-05-16T13:34:32.342Z,3.90
2023-05-16T13:37:13.479Z,9.90
2023-05-16T13:40:01.108Z,8.40
2023-05-16T13:42:40.715Z,8.40
2023-05-16T13:45:26.639Z,4.80
2023-05-16T13:48:16.852Z,5.30
2023-05-16T13:50:52.276Z,5.30
2023-05-16T13:53:26.034Z,6.00
2023-05-16T13:56:05.865Z,6.70
2023-05-16T13:59:02.027Z,6.00
2023-05-16T14:01:38.090Z,13.00
2023-05-16T14:04:15.652Z,6.40
2023-05-16T14:06:58.549Z,6.30
2023-05-16T14:09:39.484Z,4.80
2023-05-16T14:12:11.497Z,5.10
2023-05-16T14:15:02.588Z,6.70
2023-05-16T14:17:52.301Z,7.20
2023-05-16T14:20:28.045Z,6.10
2023-05-16T14:23:09.346Z,4.10
2023-05-16T14:25:59.220Z,4.80
2023-05-16T14:28:49.429Z,12.20
2023-05-16T14:31:21.658Z,5.60
2023-05-16T14:33:52.711Z,5.20
2023-05-16T14:36:36.956Z,6.20
2023-05-16T14:39:08.744Z,5.90
2023-05-16T14:41:45.503Z,5.60
2023-05-16T14:44:22.473Z,10.70
2023-05-16T14:47:09.637Z,6.80
2023-05-16T14:49:43.172Z,7.50
2023-05-16T14:52:38.573Z,5.30
2023-05-16T14:55:16.293Z,7.90
2023-05-16T14:58:41.211Z,6.20
2023-05-16T15:01:20.308Z,11.40
2023-05-16T15:04:08.877Z,11.40
2023-05-16T15:06:43.048Z,10.20
2023-05-16T15:09:23.564Z,10.70
2023-05-16T15:11:55.949Z,10.90
2023-05-16T15:14:29.114Z,10.60
2023-05-16T15:17:01.717Z,11.00
2023-05-16T15:19:40.612Z,11.40
2023-05-16T15:22:24.656Z,13.40
2023-05-16T15:25:12.522Z,12.60
2023-05-16T15:27:52.582Z,12.20
2023-05-16T15:30:29.583Z,13.30
2023-05-16T15:32:59.101Z,12.50
2023-05-16T15:35:30.576Z,12.70
2023-05-16T15:38:12.363Z,13.00
2023-05-16T15:41:06.080Z,13.20
2023-05-16T15:44:35.522Z,15.80
2023-05-16T15:47:40.455Z,18.60
2023-05-16T15:50:20.610Z,19.70
2023-05-16T15:52:58.653Z,19.10
2023-05-16T15:55:39.154Z,19.30
2023-05-16T15:58:25.910Z,19.90
2023-05-16T16:01:23.943Z,20.50
2023-05-16T16:04:26.035Z,23.50
2023-05-16T16:09:16.277Z,22.60
2023-05-16T16:11:18.366Z,21.70
2023-05-16T16:14:10.299Z,33.00
2023-05-16T16:17:17.227Z,24.50
2023-05-16T16:24:35.743Z,20.80
2023-05-16T16:30:41.865Z,19.90
2023-05-16T16:33:53.644Z,18.30
2023-05-16T16:36:24.491Z,19.70
2023-05-16T16:50:31.542Z,20.00
2023-05-16T16:53:16.697Z,21.80
2023-05-16T16:56:02.734Z,21.40
2023-05-16T16:59:11.382Z,19.90
2023-05-16T17:01:51.051Z,20.80
2023-05-16T17:05:49.769Z,20.20
2023-05-16T17:08:25.242Z,20.90
2023-05-16T17:11:01.162Z,22.10
2023-05-16T17:13:42.266Z,21.90
2023-05-16T17:16:29.905Z,21.90
2023-05-16T17:19:00.512Z,20.30
2023-05-16T17:21:56.483Z,21.70
2023-05-16T17:24:33.252Z,22.40
2023-05-16T17:27:27.452Z,21.70
2023-05-16T17:32:50.175Z,21.10
2023-05-16T17:35:25.309Z,24.50
2023-05-16T17:38:03.943Z,24.80
2023-05-16T17:40:52.895Z,24.80
2023-05-16T17:43:29.322Z,24.00
2023-05-16T17:46:08.878Z,25.60
2023-05-16T17:48:49.977Z,27.00
2023-05-16T17:51:23.272Z,27.70
2023-05-16T17:54:08.024Z,29.00
2023-05-16T17:56:48.734Z,28.90
2023-05-16T17:59:20.120Z,28.20
2023-05-16T18:01:50.219Z,24.80
2023-05-16T18:04:24.456Z,23.90
2023-05-16T18:07:05.870Z,23.90
2023-05-16T18:09:43.922Z,24.60
2023-05-16T18:12:14.840Z,23.50
2023-05-16T18:14:45.768Z,24.60
2023-05-16T18:17:16.607Z,22.70
2023-05-16T18:19:47.675Z,24.60
2023-05-16T18:22:27.469Z,22.60
2023-05-16T18:25:41.554Z,22.70
2023-05-16T18:28:33.492Z,22.00
2023-05-16T18:31:06.837Z,23.40
2023-05-16T18:33:37.372Z,24.50
2023-05-16T18:36:11.027Z,26.70
2023-05-16T18:38:51.866Z,25.00
2023-05-16T18:41:30.818Z,24.40
2023-05-16T18:44:13.977Z,37.80
2023-05-16T18:46:51.673Z,35.80
2023-05-16T18:49:29.801Z,24.60
2023-05-16T18:52:07.870Z,27.20
2023-05-16T18:54:40.290Z,24.10
2023-05-16T18:58:31.633Z,25.90
2023-05-16T19:03:10.053Z,24.30
2023-05-16T19:06:03.397Z,24.10
2023-05-16T19:09:15.145Z,25.30
2023-05-16T19:12:51.948Z,26.50
2023-05-16T19:15:40.510Z,26.30
2023-05-16T19:18:13.364Z,53.40
2023-05-16T19:24:07.001Z,27.70
2023-05-16T19:27:44.186Z,29.30
2023-05-16T19:30:22.711Z,34.20
2023-05-16T19:32:55.939Z,30.30
2023-05-16T19:35:32.128Z,28.50
2023-05-16T19:38:05.931Z,27.40
2023-05-16T19:40:47.207Z,26.70
2023-05-16T19:43:41.238Z,27.80
2023-05-16T19:46:14.906Z,27.70
2023-05-16T19:48:46.595Z,30.10
2023-05-16T19:51:33.186Z,59.70
2023-05-16T19:54:45.687Z,28.60
2023-05-16T20:01:50.516Z,45.20
2023-05-16T20:05:30.365Z,28.60
2023-05-16T20:16:28.901Z,26.30
2023-05-16T20:19:01.130Z,25.60
2023-05-16T20:22:12.631Z,24.50
2023-05-16T20:25:12.164Z,24.80
2023-05-16T20:27:51.747Z,29.70
2023-05-16T20:30:48.823Z,60.90
2023-05-16T20:33:21.499Z,32.90
2023-05-16T20:35:52.416Z,27.50
2023-05-16T20:38:28.268Z,27.20
2023-05-16T20:41:02.144Z,26.40
2023-05-16T20:43:35.744Z,25.50
2023-05-16T20:46:06.453Z,29.50
2023-05-16T20:48:39.855Z,28.70
2023-05-16T20:51:13.950Z,28.30
2023-05-16T20:53:52.794Z,32.50
2023-05-16T20:56:33.709Z,30.20
2023-05-16T20:59:14.293Z,33.60
2023-05-16T21:01:48.171Z,35.30
2023-05-16T21:04:26.894Z,32.00
2023-05-16T21:07:10.856Z,34.20
2023-05-16T21:10:11.007Z,31.30
2023-05-16T21:12:55.266Z,32.50
2023-05-16T21:15:42.562Z,31.00
2023-05-16T21:18:27.607Z,32.40
2023-05-16T21:21:00.661Z,31.90
2023-05-16T21:23:34.714Z,32.70
2023-05-16T21:26:11.438Z,31.30
2023-05-16T21:29:02.056Z,31.30
2023-05-16T21:31:52.611Z,31.30
2023-05-16T21:34:23.224Z,33.30
2023-05-16T21:36:54.328Z,32.90
2023-05-16T21:39:26.639Z,31.70
2023-05-16T21:41:56.937Z,31.30
2023-05-16T21:44:32.480Z,32.90
2023-05-16T21:47:02.931Z,31.80
2023-05-16T21:49:52.988Z,32.00
2023-05-16T21:52:23.558Z,30.80
2023-05-16T21:54:56.592Z,31.10
2023-05-16T21:57:30.437Z,29.70
2023-05-16T22:00:09.997Z,26.40
2023-05-16T22:02:45.687Z,27.90
2023-05-16T22:05:24.596Z,27.50
2023-05-16T22:07:54.784Z,26.10
2023-05-16T22:10:25.529Z,25.70
2023-05-16T22:12:55.961Z,23.40
2023-05-16T22:15:36.864Z,25.50
2023-05-16T22:18:24.522Z,24.50
2023-05-16T22:20:55.944Z,24.60
2023-05-16T22:23:26.231Z,25.20
2023-05-16T22:26:03.716Z,24.50
2023-05-16T22:28:34.734Z,21.00
2023-05-16T22:31:04.926Z,16.60
2023-05-16T22:33:37.810Z,16.70
2023-05-16T22:36:08.142Z,16.80
2023-05-16T22:38:38.554Z,16.50
2023-05-16T22:41:13.011Z,16.90
2023-05-16T22:43:45.957Z,18.00
2023-05-16T22:48:49.770Z,18.60
2023-05-16T22:51:24.206Z,17.50
2023-05-16T22:53:55.139Z,18.30
2023-05-16T22:56:36.496Z,17.50
2023-05-16T22:59:11.910Z,17.20
2023-05-16T23:01:44.010Z,19.00
2023-05-16T23:04:14.515Z,17.40
2023-05-16T23:06:49.796Z,17.10
2023-05-16T23:09:31.384Z,18.20
2023-05-16T23:12:02.332Z,17.60
2023-05-16T23:14:32.435Z,17.20
2023-05-16T23:17:05.939Z,17.20
2023-05-16T23:19:39.411Z,17.20
2023-05-16T23:22:09.901Z,18.40
2023-05-16T23:24:43.024Z,17.40
2023-05-16T23:27:17.357Z,16.70
2023-05-16T23:29:49.748Z,15.10
2023-05-16T23:34:52.142Z,17.80
2023-05-16T23:37:24.875Z,25.80
2023-05-16T23:39:57.851Z,17.20
2023-05-16T23:42:30.699Z,15.40
2023-05-16T23:45:08.693Z,14.40
2023-05-16T23:47:42.552Z,14.70
2023-05-16T23:50:21.609Z,18.20
2023-05-16T23:52:52.058Z,15.50
2023-05-16T23:55:22.440Z,15.10
2023-05-16T23:57:53.227Z,15.30
